createdAt,value
2022-10-20T00:00:36.358Z,0.40
2022-10-20T00:02:46.269Z,0.50
2022-10-20T00:04:54.719Z,0.40
2022-10-20T00:07:03.159Z,0.60
2022-10-20T00:09:11.668Z,0.30
2022-10-20T00:11:21.392Z,0.40
2022-10-20T00:13:29.866Z,0.50
2022-10-20T00:15:38.310Z,0.50
2022-10-20T00:17:48.166Z,0.60
2022-10-20T00:19:58.594Z,0.37
2022-10-20T00:22:07.059Z,0.40
2022-10-20T00:24:15.496Z,0.50
2022-10-20T00:26:24.662Z,0.40
2022-10-20T00:28:33.317Z,0.47
2022-10-20T00:30:41.983Z,0.50
2022-10-20T00:32:51.800Z,0.40
2022-10-20T00:35:00.268Z,0.50
2022-10-20T00:37:08.733Z,0.50
2022-10-20T00:39:18.763Z,0.40
2022-10-20T00:41:27.580Z,0.40
2022-10-20T00:43:49.928Z,0.30
2022-10-20T00:45:59.235Z,0.40
2022-10-20T00:48:14.291Z,0.30
2022-10-20T00:50:25.367Z,0.40
2022-10-20T00:52:37.502Z,0.40
2022-10-20T00:54:46.295Z,0.30
2022-10-20T00:56:55.992Z,0.60
2022-10-20T00:59:04.741Z,0.33
2022-10-20T01:01:14.381Z,0.43
2022-10-20T01:03:25.652Z,0.50
2022-10-20T01:05:34.054Z,0.50
2022-10-20T01:07:45.544Z,0.40
2022-10-20T01:09:54.032Z,0.50
2022-10-20T01:12:08.642Z,0.30
2022-10-20T01:14:23.727Z,0.40
2022-10-20T01:16:37.050Z,0.40
2022-10-20T01:18:50.805Z,0.40
2022-10-20T01:21:11.481Z,0.47
2022-10-20T01:23:44.230Z,0.50
2022-10-20T01:25:58.044Z,0.40
2022-10-20T01:28:09.318Z,0.60
2022-10-20T01:30:19.073Z,0.43
2022-10-20T01:32:29.579Z,0.87
2022-10-20T01:34:40.798Z,0.50
2022-10-20T01:36:50.845Z,0.40
2022-10-20T01:39:03.240Z,0.57
2022-10-20T01:41:14.451Z,0.50
2022-10-20T01:43:25.696Z,0.70
2022-10-20T01:45:35.729Z,0.40
2022-10-20T01:47:44.761Z,0.50
2022-10-20T01:49:53.834Z,0.30
2022-10-20T01:52:02.546Z,0.40
2022-10-20T01:54:21.303Z,0.53
2022-10-20T01:56:36.213Z,0.50
2022-10-20T01:58:59.279Z,0.40
2022-10-20T02:01:11.956Z,0.40
2022-10-20T02:03:27.903Z,0.50
2022-10-20T02:05:45.688Z,0.37
2022-10-20T02:07:56.277Z,0.40
2022-10-20T02:10:06.750Z,0.40
2022-10-20T02:12:17.523Z,0.40
2022-10-20T02:14:27.909Z,0.50
2022-10-20T02:16:38.784Z,0.47
2022-10-20T02:18:48.667Z,0.40
2022-10-20T02:20:58.402Z,0.40
2022-10-20T02:23:07.006Z,0.40
2022-10-20T02:25:15.607Z,0.40
2022-10-20T02:27:26.494Z,0.63
2022-10-20T02:29:38.611Z,0.40
2022-10-20T02:31:47.116Z,0.40
2022-10-20T02:33:56.460Z,0.50
2022-10-20T02:36:06.561Z,0.50
2022-10-20T02:38:15.072Z,0.50
2022-10-20T02:40:23.474Z,0.50
2022-10-20T02:42:31.896Z,0.40
2022-10-20T02:44:41.675Z,0.53
2022-10-20T02:46:50.178Z,0.30
2022-10-20T02:48:58.582Z,0.50
2022-10-20T02:51:07.284Z,1.17
2022-10-20T02:53:15.732Z,0.50
2022-10-20T02:55:24.227Z,0.40
2022-10-20T02:57:32.761Z,0.50
2022-10-20T02:59:42.746Z,0.50
2022-10-20T03:01:52.352Z,0.50
2022-10-20T03:04:00.820Z,0.40
2022-10-20T03:06:10.158Z,0.50
2022-10-20T03:08:18.607Z,0.60
2022-10-20T03:10:27.075Z,0.40
2022-10-20T03:12:35.684Z,0.50
2022-10-20T03:14:45.538Z,0.53
2022-10-20T03:16:53.979Z,0.50
2022-10-20T03:19:05.237Z,0.63
2022-10-20T03:21:15.651Z,0.40
2022-10-20T03:23:24.293Z,0.40
2022-10-20T03:25:32.968Z,0.50
2022-10-20T03:27:41.429Z,0.50
2022-10-20T03:29:51.474Z,0.47
2022-10-20T03:31:59.893Z,0.50
2022-10-20T03:34:08.329Z,0.40
2022-10-20T03:36:16.755Z,0.77
2022-10-20T03:38:25.202Z,0.40
2022-10-20T03:40:33.638Z,0.53
2022-10-20T03:42:42.080Z,0.50
2022-10-20T03:44:51.916Z,0.40
2022-10-20T03:47:00.587Z,0.60
2022-10-20T03:49:09.003Z,0.40
2022-10-20T03:51:17.426Z,0.57
2022-10-20T03:53:27.943Z,0.30
2022-10-20T03:55:36.526Z,0.40
2022-10-20T03:57:48.042Z,0.60
2022-10-20T03:59:57.848Z,0.43
2022-10-20T04:02:08.236Z,0.60
2022-10-20T04:04:16.711Z,0.50
2022-10-20T04:06:25.193Z,0.50
2022-10-20T04:08:33.716Z,0.60
2022-10-20T04:10:42.279Z,0.40
2022-10-20T04:12:50.689Z,0.63
2022-10-20T04:15:00.599Z,0.70
2022-10-20T04:17:11.891Z,0.67
2022-10-20T04:19:20.712Z,0.60
2022-10-20T04:21:29.133Z,0.70
2022-10-20T04:23:37.607Z,0.60
2022-10-20T04:25:48.849Z,0.50
2022-10-20T04:27:57.367Z,0.40
2022-10-20T04:30:07.885Z,0.67
2022-10-20T04:32:16.286Z,0.60
2022-10-20T04:34:24.791Z,0.53
2022-10-20T04:36:33.191Z,0.57
2022-10-20T04:38:41.823Z,0.70
2022-10-20T04:40:57.241Z,0.90
2022-10-20T04:43:08.133Z,0.50
2022-10-20T04:45:18.159Z,0.87
2022-10-20T04:47:26.628Z,0.50
2022-10-20T04:49:35.083Z,0.50
2022-10-20T04:51:43.781Z,0.50
2022-10-20T04:53:52.307Z,1.03
2022-10-20T04:56:01.722Z,3.50
2022-10-20T04:58:10.223Z,2.30
2022-10-20T05:00:20.644Z,1.73
2022-10-20T05:02:29.470Z,1.00
2022-10-20T05:04:38.009Z,0.77
2022-10-20T05:06:46.752Z,3.03
2022-10-20T05:08:57.273Z,3.50
2022-10-20T05:11:05.765Z,3.30
2022-10-20T05:13:14.183Z,2.50
2022-10-20T05:15:24.085Z,2.20
2022-10-20T05:17:32.555Z,2.57
2022-10-20T05:19:40.974Z,2.40
2022-10-20T05:21:49.416Z,1.70
2022-10-20T05:23:58.075Z,2.20
2022-10-20T05:26:07.097Z,2.33
2022-10-20T05:28:15.540Z,1.90
2022-10-20T05:30:25.341Z,1.80
2022-10-20T05:32:34.046Z,1.80
2022-10-20T05:34:44.024Z,1.60
2022-10-20T05:36:54.610Z,1.53
2022-10-20T05:39:03.169Z,1.50
2022-10-20T05:41:17.982Z,1.00
2022-10-20T05:43:26.385Z,1.20
2022-10-20T05:45:36.292Z,1.30
2022-10-20T05:47:44.869Z,1.37
2022-10-20T05:49:53.439Z,1.17
2022-10-20T05:52:01.849Z,0.87
2022-10-20T05:54:12.583Z,0.97
2022-10-20T05:56:22.121Z,1.30
2022-10-20T05:58:30.562Z,1.00
2022-10-20T06:00:51.861Z,1.03
2022-10-20T06:03:00.326Z,0.90
2022-10-20T06:05:09.104Z,1.07
2022-10-20T06:07:17.601Z,1.00
2022-10-20T06:09:26.265Z,1.00
2022-10-20T06:11:38.398Z,0.90
2022-10-20T06:13:51.708Z,0.80
2022-10-20T06:16:06.687Z,0.90
2022-10-20T06:18:15.368Z,0.90
2022-10-20T06:20:23.981Z,1.30
2022-10-20T06:22:32.470Z,1.00
2022-10-20T06:24:40.963Z,1.00
2022-10-20T06:26:49.440Z,1.00
2022-10-20T06:29:03.634Z,1.40
2022-10-20T06:31:15.181Z,0.90
2022-10-20T06:33:23.582Z,0.80
2022-10-20T06:35:33.139Z,0.90
2022-10-20T06:37:41.712Z,1.10
2022-10-20T06:39:50.158Z,0.60
2022-10-20T06:41:58.698Z,1.00
2022-10-20T06:44:07.465Z,0.90
2022-10-20T06:46:19.137Z,0.87
2022-10-20T06:48:27.659Z,1.20
2022-10-20T06:50:36.393Z,1.33
2022-10-20T06:52:45.319Z,1.33
2022-10-20T06:54:53.819Z,2.13
2022-10-20T06:57:02.251Z,3.10
2022-10-20T06:59:11.426Z,2.93
2022-10-20T07:01:23.400Z,2.53
2022-10-20T07:03:32.173Z,2.70
2022-10-20T07:05:40.607Z,1.90
2022-10-20T07:07:49.427Z,1.43
2022-10-20T07:09:57.879Z,1.20
2022-10-20T07:12:06.607Z,0.90
2022-10-20T07:14:15.418Z,0.87
2022-10-20T07:16:30.125Z,1.13
2022-10-20T07:18:38.629Z,1.00
2022-10-20T07:20:47.034Z,1.30
2022-10-20T07:22:57.353Z,1.70
2022-10-20T07:25:07.241Z,1.60
2022-10-20T07:27:15.750Z,1.30
2022-10-20T07:29:24.513Z,1.93
2022-10-20T07:31:36.860Z,1.40
2022-10-20T07:33:56.545Z,1.23
2022-10-20T07:36:14.723Z,1.10
2022-10-20T07:38:23.150Z,1.50
2022-10-20T07:40:32.069Z,1.30
2022-10-20T07:42:40.538Z,1.07
2022-10-20T07:44:48.951Z,0.93
2022-10-20T07:46:58.752Z,1.10
2022-10-20T07:49:31.464Z,1.10
2022-10-20T07:51:35.670Z,0.80
2022-10-20T07:53:44.573Z,0.83
2022-10-20T07:55:52.962Z,0.70
2022-10-20T07:58:01.378Z,0.77
2022-10-20T08:00:10.605Z,0.77
2022-10-20T08:02:20.815Z,0.70
2022-10-20T08:04:31.586Z,0.90
2022-10-20T08:06:40.319Z,0.50
2022-10-20T08:08:48.828Z,1.03
2022-10-20T08:10:58.314Z,0.90
2022-10-20T08:13:06.840Z,0.70
2022-10-20T08:15:15.647Z,0.67
2022-10-20T08:17:26.590Z,0.70
2022-10-20T08:19:53.981Z,1.10
2022-10-20T08:22:02.388Z,0.77
2022-10-20T08:24:11.025Z,0.70
2022-10-20T08:26:20.307Z,0.70
2022-10-20T08:28:29.145Z,0.80
2022-10-20T08:30:37.829Z,0.90
2022-10-20T08:32:47.678Z,0.80
2022-10-20T08:34:56.161Z,0.70
2022-10-20T08:37:04.715Z,0.60
2022-10-20T08:39:13.192Z,0.73
2022-10-20T08:41:23.101Z,0.60
2022-10-20T08:43:32.427Z,0.60
2022-10-20T08:45:41.504Z,0.90
2022-10-20T08:47:52.567Z,0.60
2022-10-20T08:50:01.555Z,0.90
2022-10-20T08:52:12.039Z,0.60
2022-10-20T08:54:20.610Z,0.83
2022-10-20T08:56:38.727Z,0.70
2022-10-20T08:58:47.580Z,0.90
2022-10-20T09:00:57.907Z,0.60
2022-10-20T09:03:16.408Z,0.70
2022-10-20T09:05:27.758Z,0.70
2022-10-20T09:07:38.318Z,0.60
2022-10-20T09:09:47.145Z,0.60
2022-10-20T09:11:56.829Z,0.70
2022-10-20T09:14:05.295Z,0.63
2022-10-20T09:16:27.121Z,0.60
2022-10-20T09:18:45.709Z,0.70
2022-10-20T09:20:56.476Z,0.57
2022-10-20T09:23:16.689Z,0.60
2022-10-20T09:25:30.659Z,0.60
2022-10-20T09:27:40.118Z,0.57
2022-10-20T09:29:48.557Z,0.70
2022-10-20T09:31:57.178Z,0.60
2022-10-20T09:34:21.366Z,0.50
2022-10-20T09:36:32.582Z,0.50
2022-10-20T09:38:44.752Z,0.40
2022-10-20T09:40:58.591Z,0.60
2022-10-20T09:43:11.224Z,0.70
2022-10-20T09:45:22.121Z,0.40
2022-10-20T09:47:31.137Z,0.60
2022-10-20T09:49:41.584Z,0.60
2022-10-20T09:51:50.154Z,0.57
2022-10-20T09:54:00.549Z,0.70
2022-10-20T09:56:11.097Z,0.60
2022-10-20T09:58:22.961Z,0.60
2022-10-20T10:00:37.135Z,0.60
2022-10-20T10:02:46.588Z,0.40
2022-10-20T10:04:56.893Z,0.60
2022-10-20T10:07:06.211Z,0.30
2022-10-20T10:09:28.273Z,0.50
2022-10-20T10:11:37.665Z,0.50
2022-10-20T10:13:55.137Z,0.57
2022-10-20T10:16:06.336Z,0.50
2022-10-20T10:18:23.530Z,0.57
2022-10-20T10:20:37.316Z,0.50
2022-10-20T10:22:45.841Z,0.40
2022-10-20T10:24:56.132Z,0.60
2022-10-20T10:27:07.418Z,0.50
2022-10-20T10:29:27.021Z,0.40
2022-10-20T10:31:35.579Z,0.60
2022-10-20T10:33:44.053Z,0.67
2022-10-20T10:35:54.148Z,0.47
2022-10-20T10:38:03.394Z,0.43
2022-10-20T10:40:17.788Z,0.50
2022-10-20T10:42:54.202Z,0.40
2022-10-20T10:45:06.920Z,0.40
2022-10-20T10:47:24.746Z,0.30
2022-10-20T10:49:37.491Z,0.50
2022-10-20T10:51:55.559Z,0.33
2022-10-20T10:54:12.059Z,0.40
2022-10-20T10:56:25.634Z,0.40
2022-10-20T10:58:44.760Z,0.50
2022-10-20T11:00:57.036Z,0.50
2022-10-20T11:03:12.603Z,0.43
2022-10-20T11:05:31.747Z,0.40
2022-10-20T11:07:43.949Z,0.40
2022-10-20T11:09:59.174Z,0.40
2022-10-20T11:12:23.560Z,0.50
2022-10-20T11:14:36.866Z,0.30
2022-10-20T11:16:52.428Z,0.37
2022-10-20T11:19:24.483Z,0.47
2022-10-20T11:21:37.540Z,0.50
2022-10-20T11:24:01.496Z,0.50
2022-10-20T11:26:14.415Z,0.50
2022-10-20T11:28:29.832Z,0.50
2022-10-20T11:30:38.319Z,0.57
2022-10-20T11:32:49.790Z,0.30
2022-10-20T11:35:02.156Z,0.60
2022-10-20T11:37:16.011Z,0.50
2022-10-20T11:39:27.915Z,0.50
2022-10-20T11:41:43.264Z,0.43
2022-10-20T11:43:55.702Z,0.40
2022-10-20T11:46:06.082Z,0.40
2022-10-20T11:48:19.101Z,0.60
2022-10-20T11:50:27.759Z,0.60
2022-10-20T11:52:50.706Z,0.40
2022-10-20T11:55:07.235Z,0.40
2022-10-20T11:57:22.138Z,0.40
2022-10-20T11:59:56.088Z,0.40
2022-10-20T12:02:17.484Z,0.30
2022-10-20T12:04:40.118Z,0.30
2022-10-20T12:07:00.893Z,0.40
2022-10-20T12:09:18.780Z,0.40
2022-10-20T12:11:31.419Z,0.40
2022-10-20T12:13:43.032Z,0.40
2022-10-20T12:15:52.252Z,0.40
2022-10-20T12:18:05.642Z,0.40
2022-10-20T12:20:37.998Z,0.40
2022-10-20T12:22:46.477Z,0.40
2022-10-20T12:25:09.725Z,0.40
2022-10-20T12:27:21.819Z,0.50
2022-10-20T12:29:49.196Z,0.50
2022-10-20T12:32:16.027Z,0.50
2022-10-20T12:34:25.651Z,0.40
2022-10-20T12:36:35.499Z,0.40
2022-10-20T12:38:44.893Z,0.57
2022-10-20T12:40:55.557Z,0.40
2022-10-20T12:43:05.457Z,0.50
2022-10-20T12:45:27.090Z,0.40
2022-10-20T12:47:37.785Z,0.60
2022-10-20T12:49:54.598Z,0.60
2022-10-20T12:52:03.302Z,0.57
2022-10-20T12:54:20.280Z,0.40
2022-10-20T12:56:30.084Z,0.53
2022-10-20T12:58:41.088Z,0.40
2022-10-20T13:01:07.291Z,0.40
2022-10-20T13:03:30.726Z,0.50
2022-10-20T13:05:49.607Z,0.40
2022-10-20T13:08:04.692Z,0.57
2022-10-20T13:10:28.083Z,0.47
2022-10-20T13:12:41.908Z,0.47
2022-10-20T13:14:52.930Z,0.50
2022-10-20T13:17:04.086Z,0.40
2022-10-20T13:19:17.193Z,0.50
2022-10-20T13:21:31.238Z,0.50
2022-10-20T13:23:41.593Z,0.43
2022-10-20T13:25:51.212Z,0.50
2022-10-20T13:28:06.661Z,0.80
2022-10-20T13:30:21.605Z,0.50
2022-10-20T13:32:35.846Z,0.73
2022-10-20T13:34:47.848Z,0.77
2022-10-20T13:37:09.831Z,1.00
2022-10-20T13:39:21.675Z,1.10
2022-10-20T13:41:34.842Z,0.90
2022-10-20T13:43:48.871Z,0.60
2022-10-20T13:46:09.978Z,0.50
2022-10-20T13:48:24.767Z,0.50
2022-10-20T13:50:37.124Z,0.50
2022-10-20T13:52:47.783Z,0.50
2022-10-20T13:54:58.196Z,0.60
2022-10-20T13:57:09.259Z,0.57
2022-10-20T14:01:34.143Z,0.60
2022-10-20T14:03:44.176Z,0.80
2022-10-20T14:05:54.876Z,1.17
2022-10-20T14:08:06.312Z,0.70
2022-10-20T14:10:26.346Z,0.87
2022-10-20T14:12:35.727Z,0.63
2022-10-20T14:14:45.066Z,0.50
2022-10-20T14:16:56.878Z,0.60
2022-10-20T14:19:09.079Z,0.70
2022-10-20T14:21:18.328Z,0.50
2022-10-20T14:23:27.048Z,0.50
2022-10-20T14:25:36.076Z,0.50
2022-10-20T14:27:45.179Z,0.63
2022-10-20T14:29:54.178Z,0.50
2022-10-20T14:32:04.090Z,0.50
2022-10-20T14:34:22.724Z,0.60
2022-10-20T14:36:32.368Z,0.50
2022-10-20T14:38:41.180Z,0.67
2022-10-20T14:40:53.581Z,0.60
2022-10-20T14:43:03.934Z,0.70
2022-10-20T14:45:19.805Z,0.60
2022-10-20T14:47:32.469Z,0.40
2022-10-20T14:49:50.090Z,0.67
2022-10-20T14:52:00.774Z,0.70
2022-10-20T14:54:27.018Z,0.70
2022-10-20T14:56:35.584Z,0.47
2022-10-20T14:58:58.919Z,0.60
2022-10-20T15:01:28.799Z,0.70
2022-10-20T15:03:39.258Z,0.80
2022-10-20T15:05:48.453Z,0.73
2022-10-20T15:07:57.005Z,0.77
2022-10-20T15:10:08.677Z,1.10
2022-10-20T15:12:18.441Z,0.77
2022-10-20T15:14:26.995Z,0.70
2022-10-20T15:16:37.714Z,0.80
2022-10-20T15:18:47.584Z,0.80
2022-10-20T15:20:59.324Z,0.60
2022-10-20T15:23:09.734Z,0.70
2022-10-20T15:25:18.482Z,0.80
2022-10-20T15:27:27.184Z,0.50
2022-10-20T15:29:35.685Z,0.57
2022-10-20T15:31:44.357Z,0.50
2022-10-20T15:33:54.702Z,0.60
2022-10-20T15:36:03.207Z,0.70
2022-10-20T15:38:11.710Z,0.70
2022-10-20T15:40:20.337Z,0.60
2022-10-20T15:42:29.930Z,0.70
2022-10-20T15:44:39.007Z,0.70
2022-10-20T15:46:47.818Z,0.70
2022-10-20T15:48:57.775Z,1.00
2022-10-20T15:51:07.204Z,1.37
2022-10-20T15:53:17.820Z,1.40
2022-10-20T15:55:28.204Z,1.40
2022-10-20T15:57:36.861Z,1.30
2022-10-20T15:59:45.570Z,1.47
2022-10-20T16:01:54.049Z,1.27
2022-10-20T16:04:09.104Z,1.20
2022-10-20T16:06:18.792Z,0.90
2022-10-20T16:08:27.290Z,0.97
2022-10-20T16:10:35.740Z,1.17
2022-10-20T16:12:44.191Z,1.00
2022-10-20T16:14:52.642Z,1.20
2022-10-20T16:17:01.043Z,0.90
2022-10-20T16:19:10.925Z,0.83
2022-10-20T16:21:19.371Z,1.17
2022-10-20T16:23:27.809Z,1.33
2022-10-20T16:25:36.295Z,1.30
2022-10-20T16:27:44.736Z,1.20
2022-10-20T16:29:53.175Z,1.60
2022-10-20T16:32:04.647Z,1.50
2022-10-20T16:34:14.450Z,1.83
2022-10-20T16:36:22.941Z,1.90
2022-10-20T16:38:31.362Z,1.70
2022-10-20T16:40:39.805Z,1.90
2022-10-20T16:42:48.208Z,1.87
2022-10-20T16:44:56.628Z,1.90
2022-10-20T16:47:05.076Z,1.90
2022-10-20T16:49:15.447Z,1.90
2022-10-20T16:51:23.869Z,1.70
2022-10-20T16:53:32.328Z,2.27
2022-10-20T16:55:40.738Z,1.90
2022-10-20T16:57:49.186Z,2.50
2022-10-20T16:59:59.576Z,22.97
2022-10-20T17:02:08.137Z,8.43
2022-10-20T17:04:17.951Z,8.30
2022-10-20T17:06:28.881Z,6.27
2022-10-20T17:08:43.446Z,3.87
2022-10-20T17:10:56.371Z,13.33
2022-10-20T17:13:04.851Z,30.27
2022-10-20T17:15:13.272Z,19.10
2022-10-20T17:17:21.747Z,6.90
2022-10-20T17:19:31.673Z,6.97
2022-10-20T17:21:40.296Z,5.83
2022-10-20T17:23:48.895Z,10.10
2022-10-20T17:26:03.364Z,11.33
2022-10-20T17:28:11.769Z,8.20
2022-10-20T17:30:20.228Z,10.53
2022-10-20T17:32:28.693Z,10.93
2022-10-20T17:34:38.476Z,10.57
2022-10-20T17:36:48.859Z,11.10
2022-10-20T17:38:57.821Z,12.07
2022-10-20T17:41:06.556Z,10.53
2022-10-20T17:43:15.386Z,15.03
2022-10-20T17:45:23.844Z,10.63
2022-10-20T17:47:32.303Z,8.00
2022-10-20T17:49:42.295Z,13.87
2022-10-20T17:51:51.057Z,14.60
2022-10-20T17:53:59.526Z,11.20
2022-10-20T17:56:08.855Z,10.50
2022-10-20T17:58:17.364Z,10.23
2022-10-20T18:00:43.940Z,10.77
2022-10-20T18:02:54.180Z,12.27
2022-10-20T18:05:04.426Z,9.10
2022-10-20T18:07:12.864Z,7.07
2022-10-20T18:09:21.888Z,6.67
2022-10-20T18:11:31.393Z,7.30
2022-10-20T18:13:40.546Z,7.10
2022-10-20T18:15:49.016Z,8.57
2022-10-20T18:17:57.515Z,8.40
2022-10-20T18:20:11.842Z,10.47
2022-10-20T18:22:21.386Z,9.53
2022-10-20T18:24:29.903Z,8.77
2022-10-20T18:26:38.739Z,16.77
2022-10-20T18:28:48.524Z,14.37
2022-10-20T18:30:57.332Z,13.00
2022-10-20T18:33:06.090Z,14.53
2022-10-20T18:35:16.085Z,13.13
2022-10-20T18:37:24.582Z,12.20
2022-10-20T18:39:33.262Z,10.20
2022-10-20T18:41:43.251Z,9.37
2022-10-20T18:43:57.608Z,8.10
2022-10-20T18:46:07.053Z,8.70
2022-10-20T18:48:15.484Z,12.47
2022-10-20T18:50:25.346Z,12.10
2022-10-20T18:52:34.125Z,10.57
2022-10-20T18:54:42.663Z,12.77
2022-10-20T18:56:51.172Z,14.00
2022-10-20T18:59:00.780Z,12.87
2022-10-20T19:01:10.644Z,13.23
2022-10-20T19:03:19.275Z,10.93
2022-10-20T19:05:29.212Z,11.00
2022-10-20T19:07:37.988Z,11.80
2022-10-20T19:09:48.462Z,11.63
2022-10-20T19:12:00.632Z,10.50
2022-10-20T19:14:11.484Z,11.07
2022-10-20T19:16:21.361Z,11.70
2022-10-20T19:18:31.393Z,13.57
2022-10-20T19:20:41.360Z,19.57
2022-10-20T19:22:53.689Z,16.37
2022-10-20T19:25:02.155Z,12.80
2022-10-20T19:27:27.253Z,13.67
2022-10-20T19:29:36.104Z,14.50
2022-10-20T19:31:45.628Z,15.10
2022-10-20T19:33:55.262Z,17.93
2022-10-20T19:36:05.121Z,15.03
2022-10-20T19:38:13.595Z,14.00
2022-10-20T19:40:23.909Z,13.53
2022-10-20T19:42:33.399Z,13.53
2022-10-20T19:44:42.110Z,14.73
2022-10-20T19:46:51.624Z,14.30
2022-10-20T19:49:00.122Z,14.37
2022-10-20T19:51:12.154Z,13.23
2022-10-20T19:53:20.548Z,13.30
2022-10-20T19:55:29.520Z,12.43
2022-10-20T19:57:37.964Z,12.57
2022-10-20T19:59:46.496Z,11.80
2022-10-20T20:01:54.961Z,12.33
2022-10-20T20:04:03.758Z,11.60
2022-10-20T20:06:16.374Z,9.30
2022-10-20T20:08:24.876Z,9.90
2022-10-20T20:10:33.519Z,10.03
2022-10-20T20:12:45.789Z,10.80
2022-10-20T20:14:54.916Z,9.93
2022-10-20T20:17:04.333Z,10.27
2022-10-20T20:19:13.671Z,11.13
2022-10-20T20:21:24.059Z,11.93
2022-10-20T20:23:47.551Z,10.70
2022-10-20T20:26:03.800Z,10.50
2022-10-20T20:28:12.911Z,11.00
2022-10-20T20:30:21.790Z,11.60
2022-10-20T20:32:32.141Z,11.20
2022-10-20T20:34:40.614Z,11.13
2022-10-20T20:36:50.607Z,11.10
2022-10-20T20:38:59.618Z,10.60
2022-10-20T20:41:08.731Z,11.33
2022-10-20T20:43:17.196Z,11.70
2022-10-20T20:45:25.746Z,11.50
2022-10-20T20:47:34.354Z,11.90
2022-10-20T20:49:42.947Z,11.40
2022-10-20T20:51:52.757Z,10.57
2022-10-20T20:54:01.776Z,11.00
2022-10-20T20:56:11.050Z,10.17
2022-10-20T20:58:19.489Z,11.73
2022-10-20T21:00:27.947Z,14.40
2022-10-20T21:02:36.365Z,13.80
2022-10-20T21:04:44.860Z,14.23
2022-10-20T21:07:02.220Z,14.50
2022-10-20T21:09:12.559Z,14.20
2022-10-20T21:11:21.873Z,13.50
2022-10-20T21:13:32.643Z,13.07
2022-10-20T21:15:41.057Z,12.73
2022-10-20T21:17:49.516Z,10.87
2022-10-20T21:19:57.919Z,10.80
2022-10-20T21:22:07.724Z,10.27
2022-10-20T21:24:16.396Z,11.53
2022-10-20T21:26:25.421Z,13.17
2022-10-20T21:28:34.045Z,11.60
2022-10-20T21:30:42.478Z,11.17
2022-10-20T21:32:50.966Z,10.00
2022-10-20T21:34:59.952Z,12.47
2022-10-20T21:37:09.715Z,12.50
2022-10-20T21:39:18.576Z,12.10
2022-10-20T21:41:28.012Z,12.23
2022-10-20T21:43:37.155Z,10.00
2022-10-20T21:45:45.679Z,8.83
2022-10-20T21:47:56.382Z,9.77
2022-10-20T21:50:04.917Z,9.67
2022-10-20T21:52:14.688Z,7.10
2022-10-20T21:54:24.174Z,9.93
2022-10-20T21:56:33.384Z,11.00
2022-10-20T21:58:42.282Z,11.00
2022-10-20T22:00:53.619Z,11.03
2022-10-20T22:03:02.095Z,10.80
2022-10-20T22:05:10.841Z,9.67
2022-10-20T22:07:21.200Z,9.03
2022-10-20T22:09:40.185Z,9.03
2022-10-20T22:11:51.547Z,8.60
2022-10-20T22:14:00.180Z,8.00
2022-10-20T22:16:09.379Z,8.60
2022-10-20T22:18:17.823Z,9.27
2022-10-20T22:20:26.281Z,9.80
2022-10-20T22:22:36.387Z,9.90
2022-10-20T22:24:45.148Z,10.03
2022-10-20T22:26:54.120Z,9.37
2022-10-20T22:29:02.800Z,9.20
2022-10-20T22:31:12.562Z,7.77
2022-10-20T22:33:23.166Z,8.73
2022-10-20T22:35:33.921Z,8.27
2022-10-20T22:37:43.715Z,8.67
2022-10-20T22:39:52.723Z,7.97
2022-10-20T22:42:01.210Z,9.87
2022-10-20T22:44:12.762Z,8.97
2022-10-20T22:46:22.107Z,9.13
2022-10-20T22:48:30.588Z,9.07
2022-10-20T22:50:39.024Z,9.43
2022-10-20T22:52:48.962Z,9.20
2022-10-20T22:54:57.721Z,9.33
2022-10-20T22:57:06.245Z,9.00
2022-10-20T22:59:14.698Z,8.20
2022-10-20T23:01:23.969Z,8.27
2022-10-20T23:03:32.461Z,7.40
2022-10-20T23:05:42.161Z,7.53
2022-10-20T23:07:52.267Z,7.93
2022-10-20T23:10:00.682Z,8.07
2022-10-20T23:12:09.179Z,8.47
2022-10-20T23:14:17.639Z,8.37
2022-10-20T23:16:26.304Z,7.30
2022-10-20T23:18:35.527Z,8.63
2022-10-20T23:20:43.991Z,7.77
2022-10-20T23:22:53.811Z,7.57
2022-10-20T23:25:02.491Z,7.60
2022-10-20T23:27:10.965Z,7.37
2022-10-20T23:29:19.748Z,5.90
2022-10-20T23:31:28.537Z,6.20
2022-10-20T23:33:37.203Z,5.80
2022-10-20T23:35:45.647Z,5.50
2022-10-20T23:37:55.546Z,5.57
2022-10-20T23:40:04.100Z,7.80
2022-10-20T23:42:12.543Z,7.37
2022-10-20T23:44:20.976Z,6.93
2022-10-20T23:46:32.227Z,6.33
2022-10-20T23:48:41.346Z,7.67
2022-10-20T23:50:49.805Z,7.33
2022-10-20T23:52:59.694Z,7.87
2022-10-20T23:55:11.889Z,7.50
2022-10-20T23:57:23.169Z,6.73
2022-10-20T23:59:31.590Z,7.43
